NCAR-RAP Real-Time Weather Data

Output produced by METARs form (10 April 2020  07:19 UTC)
found at http://weather.rap.ucar.edu/surface/
 
KABE 100651Z AUTO 28015G26KT 10SM FEW110 06/M04 A2940 RMK AO2 PK WND 29033/0609 SLP955 T00561044